Time;durP1;ratioP1;P1;durP2;ratioP2;P2;SDS_P1;SDS_P2;PMS_P1;PMS_P2;Temp;Humidity;BMP_temperature;BMP_pressure;BME280_temperature;BME280_humidity;BME280_pressure;Samples;Min_cycle;Max_cycle;Signal;HPM_P1;HPM_P2
2023/06/03 04:01:43;;;;;;;;;;;12.80;99.90;;;;;;5406028;23;19925;-66
2023/06/03 04:04:10;;;;;;;;;;;12.80;99.90;;;;;;4996121;28;19914;-66
2023/06/03 04:06:37;;;;;;;;;;;12.90;99.90;;;;;;4996491;28;19920;-66
2023/06/03 04:09:04;;;;;;;;;;;12.70;99.90;;;;;;4995827;28;20377;-66
2023/06/03 04:11:41;;;;;;;;;;;12.80;99.90;;;;;;4996470;28;19957;-67
2023/06/03 04:14:11;;;;;;;;;;;12.70;99.90;;;;;;5014847;23;19926;-70
2023/06/03 04:16:50;;;;;;;;;;;12.80;99.90;;;;;;4984616;28;19976;-70
2023/06/03 04:19:19;;;;;;;;;;;12.80;99.90;;;;;;4977169;28;20510;-70
2023/06/03 04:21:45;;;;;;;;;;;12.80;99.90;;;;;;4981454;28;19914;-70
2023/06/03 04:24:10;;;;;;;;;;;12.90;99.90;;;;;;4997321;28;19914;-70
2023/06/03 04:26:36;;;;;;;;;;;13.00;99.90;;;;;;4994974;28;19916;-70
2023/06/03 04:29:02;;;;;;;;;;;13.00;99.90;;;;;;4995977;28;20271;-69
2023/06/03 04:31:27;;;;;;;;;;;13.10;99.90;;;;;;4979617;28;20356;-69
2023/06/03 04:33:53;;;;;;;;;;;13.10;99.90;;;;;;4975379;28;19925;-69
2023/06/03 04:36:18;;;;;;;;;;;13.10;99.90;;;;;;4977574;28;20001;-69
2023/06/03 04:38:45;;;;;;;;;;;13.10;99.90;;;;;;4975233;28;19914;-69
2023/06/03 04:41:11;;;;;;;;;;;13.10;99.90;;;;;;4976942;28;19914;-69
2023/06/03 04:43:38;;;;;;;;;;;13.20;99.90;;;;;;4985387;28;19972;-69
2023/06/03 04:46:05;;;;;;;;;;;13.20;99.90;;;;;;4994920;28;19921;-68
2023/06/03 04:48:30;;;;;;;;;;;13.30;99.90;;;;;;4975419;28;19914;-70
2023/06/03 04:50:56;;;;;;;;;;;13.20;99.90;;;;;;4988915;28;20251;-69
2023/06/03 04:53:25;;;;;;;;;;;13.30;99.90;;;;;;4996204;28;19921;-69
2023/06/03 04:55:51;;;;;;;;;;;13.40;99.90;;;;;;4994786;28;19910;-69
2023/06/03 04:58:18;;;;;;;;;;;13.50;99.90;;;;;;4994090;28;19909;-69
2023/06/03 05:00:45;;;;;;;;;;;13.50;99.90;;;;;;4995633;28;19928;-69
2023/06/03 05:03:10;;;;;;;;;;;13.50;99.90;;;;;;4995584;28;19953;-69
2023/06/03 05:05:39;;;;;;;;;;;13.60;99.90;;;;;;4995873;28;19910;-69
2023/06/03 05:08:05;;;;;;;;;;;13.70;99.90;;;;;;4992428;28;20405;-69
2023/06/03 05:10:30;;;;;;;;;;;13.70;99.90;;;;;;4994429;28;19934;-69
2023/06/03 05:12:57;;;;;;;;;;;13.80;99.90;;;;;;5000347;28;19914;-68
2023/06/03 05:15:22;;;;;;;;;;;13.90;99.90;;;;;;4982812;28;19910;-69
2023/06/03 05:17:48;;;;;;;;;;;13.90;99.90;;;;;;4980424;28;20402;-67
2023/06/03 05:20:13;;;;;;;;;;;14.00;99.90;;;;;;4982094;28;19925;-68
2023/06/03 05:22:39;;;;;;;;;;;14.10;99.90;;;;;;4977383;28;20326;-70
2023/06/03 05:25:05;;;;;;;;;;;14.20;99.90;;;;;;4977747;28;19917;-69
2023/06/03 05:27:30;;;;;;;;;;;14.20;99.90;;;;;;4982028;28;20390;-69
2023/06/03 05:29:56;;;;;;;;;;;14.30;99.90;;;;;;4984984;28;19914;-69
2023/06/03 05:32:21;;;;;;;;;;;14.40;99.90;;;;;;4981189;28;19914;-68
2023/06/03 05:34:47;;;;;;;;;;;14.40;99.90;;;;;;4984785;28;20409;-69
2023/06/03 05:37:12;;;;;;;;;;;14.40;99.90;;;;;;4975038;28;20390;-68
2023/06/03 05:39:38;;;;;;;;;;;14.50;99.90;;;;;;4977357;28;20271;-68
2023/06/03 05:42:04;;;;;;;;;;;14.60;99.90;;;;;;4984743;28;20272;-69
2023/06/03 05:44:29;;;;;;;;;;;14.60;99.90;;;;;;4992927;28;20378;-69
2023/06/03 05:46:55;;;;;;;;;;;14.70;99.90;;;;;;4995261;28;19917;-70
2023/06/03 05:49:20;;;;;;;;;;;14.80;99.90;;;;;;4995456;28;19936;-70
2023/06/03 05:51:46;;;;;;;;;;;14.80;99.90;;;;;;4994829;28;19913;-69
2023/06/03 05:54:12;;;;;;;;;;;14.80;99.90;;;;;;4994662;28;20012;-69
2023/06/03 05:56:37;;;;;;;;;;;14.80;99.90;;;;;;4994975;28;20004;-69
2023/06/03 05:59:03;;;;;;;;;;;14.90;99.90;;;;;;4982483;28;19960;-68
2023/06/03 06:01:30;;;;;;;;;;;15.00;99.90;;;;;;4983581;28;20338;-68
2023/06/03 06:03:56;;;;;;;;;;;15.10;99.90;;;;;;4976840;28;19918;-67
2023/06/03 06:06:21;;;;;;;;;;;15.20;99.90;;;;;;4986497;28;19914;-67
2023/06/03 06:08:46;;;;;;;;;;;15.20;99.90;;;;;;4994598;28;19960;-67
2023/06/03 06:11:13;;;;;;;;;;;15.30;99.90;;;;;;4992590;28;19910;-66
2023/06/03 06:13:39;;;;;;;;;;;15.30;99.90;;;;;;4986824;28;19925;-68
2023/06/03 06:16:05;;;;;;;;;;;15.40;99.90;;;;;;4976617;28;19911;-68
2023/06/03 06:18:30;;;;;;;;;;;15.50;99.90;;;;;;4985900;28;19910;-67
2023/06/03 06:20:56;;;;;;;;;;;15.50;99.90;;;;;;4986461;28;20321;-68
2023/06/03 06:23:22;;;;;;;;;;;15.60;99.90;;;;;;4983626;28;19914;-70
2023/06/03 06:25:48;;;;;;;;;;;15.60;99.90;;;;;;4976297;28;20402;-68
2023/06/03 06:28:15;;;;;;;;;;;15.70;99.90;;;;;;4976034;28;20220;-68
2023/06/03 06:30:40;;;;;;;;;;;15.80;99.90;;;;;;4980139;28;20283;-69
2023/06/03 06:33:06;;;;;;;;;;;15.90;99.90;;;;;;4985436;28;19913;-68
2023/06/03 06:35:32;;;;;;;;;;;15.90;99.90;;;;;;4995154;28;20009;-68
2023/06/03 06:37:57;;;;;;;;;;;16.00;99.90;;;;;;4994845;28;19910;-69
2023/06/03 06:40:26;;;;;;;;;;;16.00;99.90;;;;;;4994576;28;20325;-69
2023/06/03 06:42:52;;;;;;;;;;;16.00;99.90;;;;;;4982951;28;19925;-70
2023/06/03 06:45:25;;;;;;;;;;;16.10;99.90;;;;;;4987960;28;19914;-73
2023/06/03 06:47:54;;;;;;;;;;;16.20;99.90;;;;;;4993561;28;20437;-73
2023/06/03 06:50:25;;;;;;;;;;;16.30;99.90;;;;;;4985606;28;19921;-69
2023/06/03 06:52:51;;;;;;;;;;;16.40;99.90;;;;;;4994879;28;20264;-69
2023/06/03 06:55:34;;;;;;;;;;;16.50;99.70;;;;;;4994814;28;19921;-68
2023/06/03 06:57:59;;;;;;;;;;;16.60;99.60;;;;;;4979641;28;20290;-66
2023/06/03 07:00:27;;;;;;;;;;;16.70;98.90;;;;;;4977273;28;20008;-66
2023/06/03 07:02:53;;;;;;;;;;;16.90;98.70;;;;;;4977545;28;19910;-69
2023/06/03 07:05:18;;;;;;;;;;;17.00;98.50;;;;;;4980393;28;20436;-68
2023/06/03 07:07:44;;;;;;;;;;;17.10;98.10;;;;;;4977442;28;20046;-68
2023/06/03 07:10:10;;;;;;;;;;;17.10;97.90;;;;;;4978793;28;19910;-68
2023/06/03 07:12:36;;;;;;;;;;;17.10;97.70;;;;;;4979260;28;19925;-68
2023/06/03 07:15:01;;;;;;;;;;;17.10;97.60;;;;;;4996999;28;19915;-68
2023/06/03 07:17:27;;;;;;;;;;;17.20;97.40;;;;;;4997679;28;19914;-67
2023/06/03 07:19:52;;;;;;;;;;;17.30;97.00;;;;;;4998117;28;19910;-67
2023/06/03 07:22:18;;;;;;;;;;;17.40;97.00;;;;;;4997872;28;19922;-70
2023/06/03 07:24:45;;;;;;;;;;;17.40;97.00;;;;;;4996821;28;19920;-70
2023/06/03 07:27:17;;;;;;;;;;;17.50;97.00;;;;;;4995365;28;19914;-69
2023/06/03 07:29:42;;;;;;;;;;;17.80;96.50;;;;;;4997292;28;19918;-69
2023/06/03 07:32:09;;;;;;;;;;;17.80;96.30;;;;;;4997172;28;19909;-69
2023/06/03 07:34:34;;;;;;;;;;;17.90;96.10;;;;;;4979803;28;19921;-69
2023/06/03 07:37:01;;;;;;;;;;;18.00;96.00;;;;;;4981311;28;19914;-69
2023/06/03 07:39:27;;;;;;;;;;;18.00;95.90;;;;;;4989812;28;19909;-69
2023/06/03 07:41:52;;;;;;;;;;;18.20;95.40;;;;;;4995403;28;19921;-70
2023/06/03 07:44:19;;;;;;;;;;;18.30;95.40;;;;;;4996609;28;20355;-69
2023/06/03 07:46:48;;;;;;;;;;;18.60;95.20;;;;;;4996840;28;19909;-67
2023/06/03 07:49:14;;;;;;;;;;;18.70;94.50;;;;;;4979195;28;19917;-71
2023/06/03 07:51:41;;;;;;;;;;;18.80;94.40;;;;;;4977405;28;20282;-71
2023/06/03 07:54:07;;;;;;;;;;;18.90;94.30;;;;;;4977365;28;19910;-71
2023/06/03 07:56:32;;;;;;;;;;;18.90;94.30;;;;;;4977768;28;19914;-71
2023/06/03 07:59:00;;;;;;;;;;;19.10;93.90;;;;;;4994018;28;19956;-69
2023/06/03 08:01:25;;;;;;;;;;;19.20;93.50;;;;;;4996557;28;20020;-68
2023/06/03 08:03:52;;;;;;;;;;;19.40;93.30;;;;;;4996062;28;20017;-71
2023/06/03 08:06:17;;;;;;;;;;;19.60;92.90;;;;;;4996549;28;19963;-69
2023/06/03 08:08:43;;;;;;;;;;;20.10;92.50;;;;;;4992665;28;19997;-71
2023/06/03 08:11:09;;;;;;;;;;;21.70;90.80;;;;;;4975999;28;20367;-69
2023/06/03 08:13:34;;;;;;;;;;;24.00;84.70;;;;;;4986144;28;20008;-68
2023/06/03 08:16:00;;;;;;;;;;;26.20;78.30;;;;;;4995933;28;20479;-68
2023/06/03 08:18:25;;;;;;;;;;;27.30;73.60;;;;;;4996712;28;19916;-68
2023/06/03 08:20:51;;;;;;;;;;;28.20;70.60;;;;;;4983311;28;20375;-67
2023/06/03 08:23:16;;;;;;;;;;;28.40;69.10;;;;;;4977046;28;19910;-68
2023/06/03 08:25:42;;;;;;;;;;;28.60;67.90;;;;;;4975439;28;20396;-68
2023/06/03 08:28:08;;;;;;;;;;;28.90;67.00;;;;;;4975286;28;19918;-68
2023/06/03 08:30:33;;;;;;;;;;;28.90;67.20;;;;;;4980325;28;19920;-68
2023/06/03 08:32:59;;;;;;;;;;;29.30;65.70;;;;;;4987052;28;19920;-67
2023/06/03 08:35:24;;;;;;;;;;;29.20;65.80;;;;;;4993552;28;19920;-68
2023/06/03 08:37:50;;;;;;;;;;;29.50;65.20;;;;;;4991884;28;19914;-68
2023/06/03 08:40:16;;;;;;;;;;;29.60;64.90;;;;;;4992229;28;19925;-68
2023/06/03 08:42:45;;;;;;;;;;;29.80;64.20;;;;;;4988342;28;19914;-67
2023/06/03 08:45:12;;;;;;;;;;;30.60;63.30;;;;;;4979426;28;19925;-68
2023/06/03 08:47:40;;;;;;;;;;;31.10;62.50;;;;;;4981496;28;19954;-68
2023/06/03 08:50:07;;;;;;;;;;;30.80;61.80;;;;;;4982244;28;19914;-68
2023/06/03 08:52:33;;;;;;;;;;;30.80;62.00;;;;;;4991492;28;19980;-65
2023/06/03 08:55:00;;;;;;;;;;;31.00;61.90;;;;;;4976620;28;20009;-67
2023/06/03 08:57:27;;;;;;;;;;;32.10;60.60;;;;;;4976582;28;19946;-67
2023/06/03 08:59:53;;;;;;;;;;;32.60;59.90;;;;;;4976363;28;19910;-67
2023/06/03 09:02:19;;;;;;;;;;;32.40;59.20;;;;;;4983800;28;19935;-68
2023/06/03 09:07:21;;;;;;;9.48;3.63;;;32.90;58.00;;;;;;5114584;27;20307;-70
2023/06/03 09:09:50;;;;;;;9.35;4.20;;;32.50;58.70;;;;;;5111865;28;20471;-68
2023/06/03 09:12:16;;;;;;;10.43;3.90;;;32.30;58.80;;;;;;5110323;28;20098;-68
2023/06/03 09:14:44;;;;;;;9.40;3.67;;;31.90;58.80;;;;;;5091845;28;20033;-67
2023/06/03 09:17:10;;;;;;;7.47;3.60;;;31.70;60.00;;;;;;5090996;28;20028;-71
2023/06/03 09:19:36;;;;;;;6.22;3.33;;;32.00;59.50;;;;;;5090747;28;20028;-72
2023/06/03 09:22:02;;;;;;;10.20;3.83;;;32.50;58.80;;;;;;5090914;28;20035;-71
2023/06/03 09:24:28;;;;;;;8.05;3.85;;;32.60;58.80;;;;;;5087679;28;20165;-71
2023/06/03 09:26:54;;;;;;;9.57;3.80;;;32.70;58.30;;;;;;5089049;28;20113;-71
2023/06/03 09:29:20;;;;;;;8.98;3.85;;;32.90;58.00;;;;;;5089577;28;20047;-72
2023/06/03 09:31:48;;;;;;;14.75;4.07;;;33.40;57.90;;;;;;5089251;28;20413;-71
2023/06/03 09:34:15;;;;;;;6.38;3.53;;;33.10;57.40;;;;;;5089847;28;20319;-70
2023/06/03 09:36:45;;;;;;;7.82;3.58;;;32.80;57.90;;;;;;5088927;28;20031;-71
2023/06/03 09:39:16;;;;;;;8.27;3.42;;;33.70;57.60;;;;;;5070686;28;20041;-71
2023/06/03 09:41:42;;;;;;;9.50;3.30;;;34.10;56.70;;;;;;5082566;28;20036;-70
2023/06/03 09:44:10;;;;;;;7.55;3.65;;;33.70;57.20;;;;;;5082209;28;20032;-69
2023/06/03 09:46:36;;;;;;;8.13;3.50;;;33.30;56.70;;;;;;5084977;28;20044;-69
2023/06/03 09:49:19;;;;;;;7.97;4.00;;;33.20;57.20;;;;;;5084234;28;20099;-69
2023/06/03 09:51:48;;;;;;;6.28;3.70;;;32.80;57.70;;;;;;5080695;28;20094;-70
2023/06/03 09:54:16;;;;;;;5.57;3.00;;;33.00;57.60;;;;;;5086365;28;20027;-71
2023/06/03 09:56:45;;;;;;;7.85;3.60;;;34.00;56.90;;;;;;5088370;28;20480;-70
2023/06/03 09:59:21;;;;;;;6.85;3.60;;;34.10;56.50;;;;;;5088591;28;20031;-70
2023/06/03 10:01:48;;;;;;;17.00;4.03;;;33.40;57.00;;;;;;5084107;28;20469;-68
2023/06/03 10:04:35;;;;;;;19.40;4.32;;;34.00;56.90;;;;;;5081779;28;20036;-69
2023/06/03 10:07:12;;;;;;;8.50;3.72;;;32.40;57.40;;;;;;5088367;28;20024;-70
2023/06/03 10:09:39;;;;;;;10.82;3.50;;;31.50;58.90;;;;;;5089514;28;20017;-69
2023/06/03 10:12:07;;;;;;;7.60;4.05;;;32.10;58.40;;;;;;5083285;28;20021;-68
2023/06/03 10:14:33;;;;;;;6.70;3.70;;;32.30;58.60;;;;;;5077044;28;20044;-65
2023/06/03 10:17:06;;;;;;;8.57;3.75;;;32.30;58.10;;;;;;5063955;28;20036;-65
2023/06/03 10:19:33;;;;;;;8.30;4.20;;;32.90;58.00;;;;;;5069625;28;20497;-65
2023/06/03 10:21:59;;;;;;;7.05;3.67;;;33.60;57.10;;;;;;5076587;28;20028;-65
2023/06/03 10:24:27;;;;;;;7.43;3.85;;;33.20;57.60;;;;;;5075572;28;20032;-65
2023/06/03 10:26:53;;;;;;;6.18;3.42;;;33.40;57.20;;;;;;5076183;28;20021;-64
2023/06/03 10:29:20;;;;;;;9.73;3.80;;;33.30;56.90;;;;;;5075512;28;20066;-65
2023/06/03 10:31:49;;;;;;;6.97;3.70;;;32.70;57.70;;;;;;5075855;28;20020;-65
2023/06/03 10:34:15;;;;;;;7.05;4.03;;;32.60;57.80;;;;;;5075752;28;20020;-64
2023/06/03 10:36:42;;;;;;;7.95;4.03;;;33.40;57.20;;;;;;5075478;28;20032;-65
